sensor_id;sensor_type;location;lat;lon;timestamp;P1;durP1;ratioP1;P2;durP2;ratioP2
62457;SDS011;48509;52.122;5.250;2023-10-09T00:01:05;60.9;;;42.1;;
62457;SDS011;48509;52.122;5.250;2023-10-09T00:02:43;58.5;;;40.1;;
62457;SDS011;48509;52.122;5.250;2023-10-09T00:04:19;64.91;;;42.2;;
62457;SDS011;48509;52.122;5.250;2023-10-09T00:07:31;67.1;;;43.7;;
62457;SDS011;48509;52.122;5.250;2023-10-09T00:09:07;65.6;;;41.9;;
62457;SDS011;48509;52.122;5.250;2023-10-09T00:10:45;60.3;;;43.2;;
62457;SDS011;48509;52.122;5.250;2023-10-09T00:13:59;63.8;;;43.4;;
62457;SDS011;48509;52.122;5.250;2023-10-09T00:15:35;76.2;;;47.4;;
62457;SDS011;48509;52.122;5.250;2023-10-09T00:17:11;72.61;;;46.5;;
62457;SDS011;48509;52.122;5.250;2023-10-09T00:20:23;71.8;;;46.0;;
62457;SDS011;48509;52.122;5.250;2023-10-09T00:21:59;63.5;;;41.1;;
62457;SDS011;48509;52.122;5.250;2023-10-09T00:23:35;64.8;;;44.1;;
62457;SDS011;48509;52.122;5.250;2023-10-09T00:26:49;57.4;;;39.4;;
62457;SDS011;48509;52.122;5.250;2023-10-09T00:28:25;63.3;;;43.0;;
62457;SDS011;48509;52.122;5.250;2023-10-09T00:30:01;62.5;;;41.8;;
62457;SDS011;48509;52.122;5.250;2023-10-09T00:31:38;57.2;;;38.6;;
62457;SDS011;48509;52.122;5.250;2023-10-09T00:34:50;59.3;;;40.6;;
62457;SDS011;48509;52.122;5.250;2023-10-09T00:36:29;54.6;;;39.5;;
62457;SDS011;48509;52.122;5.250;2023-10-09T00:38:06;62.1;;;38.1;;
62457;SDS011;48509;52.122;5.250;2023-10-09T00:41:20;63.8;;;42.2;;
62457;SDS011;48509;52.122;5.250;2023-10-09T00:42:58;60.7;;;40.9;;
62457;SDS011;48509;52.122;5.250;2023-10-09T00:44:35;70.0;;;44.1;;
62457;SDS011;48509;52.122;5.250;2023-10-09T00:46:11;67.91;;;45.2;;
62457;SDS011;48509;52.122;5.250;2023-10-09T00:49:25;58.5;;;40.81;;
62457;SDS011;48509;52.122;5.250;2023-10-09T00:51:02;50.7;;;36.31;;
62457;SDS011;48509;52.122;5.250;2023-10-09T00:52:38;66.7;;;42.4;;
62457;SDS011;48509;52.122;5.250;2023-10-09T00:55:53;58.8;;;40.6;;
62457;SDS011;48509;52.122;5.250;2023-10-09T00:57:30;65.1;;;43.5;;
62457;SDS011;48509;52.122;5.250;2023-10-09T00:59:07;60.5;;;40.1;;
62457;SDS011;48509;52.122;5.250;2023-10-09T01:02:20;69.7;;;45.2;;
62457;SDS011;48509;52.122;5.250;2023-10-09T01:03:56;67.91;;;43.4;;
62457;SDS011;48509;52.122;5.250;2023-10-09T01:05:32;58.6;;;38.21;;
62457;SDS011;48509;52.122;5.250;2023-10-09T01:07:09;61.8;;;40.21;;
62457;SDS011;48509;52.122;5.250;2023-10-09T01:10:21;63.9;;;43.7;;
62457;SDS011;48509;52.122;5.250;2023-10-09T01:11:57;47.6;;;34.5;;
62457;SDS011;48509;52.122;5.250;2023-10-09T01:13:33;55.9;;;36.31;;
62457;SDS011;48509;52.122;5.250;2023-10-09T01:16:46;55.8;;;37.9;;
62457;SDS011;48509;52.122;5.250;2023-10-09T01:18:22;52.5;;;36.0;;
62457;SDS011;48509;52.122;5.250;2023-10-09T01:20:01;52.5;;;36.0;;
62457;SDS011;48509;52.122;5.250;2023-10-09T01:23:13;50.4;;;34.71;;
62457;SDS011;48509;52.122;5.250;2023-10-09T01:24:49;54.7;;;36.0;;
62457;SDS011;48509;52.122;5.250;2023-10-09T01:26:26;58.6;;;38.6;;
62457;SDS011;48509;52.122;5.250;2023-10-09T01:28:03;48.0;;;30.1;;
62457;SDS011;48509;52.122;5.250;2023-10-09T01:31:17;44.8;;;29.3;;
62457;SDS011;48509;52.122;5.250;2023-10-09T01:32:53;43.2;;;29.3;;
62457;SDS011;48509;52.122;5.250;2023-10-09T01:34:29;39.0;;;28.9;;
62457;SDS011;48509;52.122;5.250;2023-10-09T01:37:43;44.4;;;29.4;;
62457;SDS011;48509;52.122;5.250;2023-10-09T01:39:20;43.3;;;30.2;;
62457;SDS011;48509;52.122;5.250;2023-10-09T01:40:58;42.2;;;30.7;;
62457;SDS011;48509;52.122;5.250;2023-10-09T01:44:10;37.6;;;28.3;;
62457;SDS011;48509;52.122;5.250;2023-10-09T01:45:46;35.5;;;26.7;;
62457;SDS011;48509;52.122;5.250;2023-10-09T01:47:23;37.5;;;27.1;;
62457;SDS011;48509;52.122;5.250;2023-10-09T01:49:00;35.31;;;26.9;;
62457;SDS011;48509;52.122;5.250;2023-10-09T01:52:13;33.9;;;25.3;;
62457;SDS011;48509;52.122;5.250;2023-10-09T01:53:49;41.2;;;26.5;;
62457;SDS011;48509;52.122;5.250;2023-10-09T01:55:25;33.9;;;24.3;;
62457;SDS011;48509;52.122;5.250;2023-10-09T01:58:40;43.1;;;30.0;;
62457;SDS011;48509;52.122;5.250;2023-10-09T02:00:18;31.0;;;23.8;;
62457;SDS011;48509;52.122;5.250;2023-10-09T02:01:55;37.5;;;25.1;;
62457;SDS011;48509;52.122;5.250;2023-10-09T02:05:08;36.4;;;23.4;;
62457;SDS011;48509;52.122;5.250;2023-10-09T02:06:45;28.2;;;21.7;;
62457;SDS011;48509;52.122;5.250;2023-10-09T02:08:22;29.4;;;22.7;;
62457;SDS011;48509;52.122;5.250;2023-10-09T02:09:58;37.71;;;26.5;;
62457;SDS011;48509;52.122;5.250;2023-10-09T02:13:13;30.0;;;23.2;;
62457;SDS011;48509;52.122;5.250;2023-10-09T02:14:50;32.1;;;22.1;;
62457;SDS011;48509;52.122;5.250;2023-10-09T02:16:27;42.0;;;25.7;;
62457;SDS011;48509;52.122;5.250;2023-10-09T02:19:40;28.9;;;21.6;;
62457;SDS011;48509;52.122;5.250;2023-10-09T02:21:16;31.0;;;20.9;;
62457;SDS011;48509;52.122;5.250;2023-10-09T02:22:52;35.1;;;22.9;;
62457;SDS011;48509;52.122;5.250;2023-10-09T02:24:29;30.6;;;21.0;;
62457;SDS011;48509;52.122;5.250;2023-10-09T02:27:41;27.9;;;20.11;;
62457;SDS011;48509;52.122;5.250;2023-10-09T02:29:17;30.4;;;20.5;;
62457;SDS011;48509;52.122;5.250;2023-10-09T02:30:53;27.4;;;19.5;;
62457;SDS011;48509;52.122;5.250;2023-10-09T02:34:05;27.2;;;19.11;;
62457;SDS011;48509;52.122;5.250;2023-10-09T02:35:42;23.9;;;18.41;;
62457;SDS011;48509;52.122;5.250;2023-10-09T02:37:18;31.3;;;21.0;;
62457;SDS011;48509;52.122;5.250;2023-10-09T02:40:31;25.5;;;19.11;;
62457;SDS011;48509;52.122;5.250;2023-10-09T02:42:08;23.8;;;18.91;;
62457;SDS011;48509;52.122;5.250;2023-10-09T02:43:44;35.1;;;22.2;;
62457;SDS011;48509;52.122;5.250;2023-10-09T02:46:56;27.1;;;17.91;;
62457;SDS011;48509;52.122;5.250;2023-10-09T02:48:32;23.4;;;17.3;;
62457;SDS011;48509;52.122;5.250;2023-10-09T02:51:44;26.8;;;17.11;;
62457;SDS011;48509;52.122;5.250;2023-10-09T02:54:56;23.4;;;17.5;;
62457;SDS011;48509;52.122;5.250;2023-10-09T02:56:34;20.11;;;16.3;;
62457;SDS011;48509;52.122;5.250;2023-10-09T02:58:11;23.0;;;17.8;;
62457;SDS011;48509;52.122;5.250;2023-10-09T03:01:24;21.7;;;15.8;;
62457;SDS011;48509;52.122;5.250;2023-10-09T03:03:00;19.11;;;16.2;;
62457;SDS011;48509;52.122;5.250;2023-10-09T03:04:36;25.7;;;17.11;;
62457;SDS011;48509;52.122;5.250;2023-10-09T03:07:49;21.3;;;15.9;;
62457;SDS011;48509;52.122;5.250;2023-10-09T03:09:26;24.1;;;15.9;;
62457;SDS011;48509;52.122;5.250;2023-10-09T03:11:02;18.8;;;15.1;;
62457;SDS011;48509;52.122;5.250;2023-10-09T03:12:39;19.8;;;14.6;;
62457;SDS011;48509;52.122;5.250;2023-10-09T03:15:51;23.8;;;15.8;;
62457;SDS011;48509;52.122;5.250;2023-10-09T03:17:27;18.61;;;14.0;;
62457;SDS011;48509;52.122;5.250;2023-10-09T03:19:03;22.9;;;14.7;;
62457;SDS011;48509;52.122;5.250;2023-10-09T03:22:15;20.3;;;14.7;;
62457;SDS011;48509;52.122;5.250;2023-10-09T03:23:51;21.7;;;14.8;;
62457;SDS011;48509;52.122;5.250;2023-10-09T03:25:27;22.7;;;15.2;;
62457;SDS011;48509;52.122;5.250;2023-10-09T03:28:40;19.2;;;15.0;;
62457;SDS011;48509;52.122;5.250;2023-10-09T03:30:17;19.3;;;12.8;;
62457;SDS011;48509;52.122;5.250;2023-10-09T03:31:53;24.0;;;13.3;;
62457;SDS011;48509;52.122;5.250;2023-10-09T03:35:05;18.91;;;13.1;;
62457;SDS011;48509;52.122;5.250;2023-10-09T03:36:42;20.2;;;12.3;;
62457;SDS011;48509;52.122;5.250;2023-10-09T03:38:18;16.11;;;11.8;;
62457;SDS011;48509;52.122;5.250;2023-10-09T03:39:53;17.2;;;12.2;;
62457;SDS011;48509;52.122;5.250;2023-10-09T03:43:05;20.6;;;12.4;;
62457;SDS011;48509;52.122;5.250;2023-10-09T03:44:41;20.11;;;13.7;;
62457;SDS011;48509;52.122;5.250;2023-10-09T03:46:18;20.5;;;12.3;;
62457;SDS011;48509;52.122;5.250;2023-10-09T03:49:32;14.4;;;10.7;;
62457;SDS011;48509;52.122;5.250;2023-10-09T03:51:08;16.8;;;11.4;;
62457;SDS011;48509;52.122;5.250;2023-10-09T03:52:45;18.8;;;12.7;;
62457;SDS011;48509;52.122;5.250;2023-10-09T03:55:57;22.4;;;12.6;;
62457;SDS011;48509;52.122;5.250;2023-10-09T03:57:33;21.3;;;12.8;;
62457;SDS011;48509;52.122;5.250;2023-10-09T03:59:09;20.8;;;12.2;;
62457;SDS011;48509;52.122;5.250;2023-10-09T04:00:45;21.0;;;11.9;;
62457;SDS011;48509;52.122;5.250;2023-10-09T04:03:58;20.2;;;13.6;;
62457;SDS011;48509;52.122;5.250;2023-10-09T04:05:37;20.8;;;12.9;;
62457;SDS011;48509;52.122;5.250;2023-10-09T04:07:13;22.4;;;14.4;;
62457;SDS011;48509;52.122;5.250;2023-10-09T04:10:25;18.5;;;13.9;;
62457;SDS011;48509;52.122;5.250;2023-10-09T04:12:01;24.4;;;13.8;;
62457;SDS011;48509;52.122;5.250;2023-10-09T04:13:37;17.11;;;13.5;;
62457;SDS011;48509;52.122;5.250;2023-10-09T04:16:49;19.2;;;12.8;;
62457;SDS011;48509;52.122;5.250;2023-10-09T04:18:25;22.7;;;15.0;;
62457;SDS011;48509;52.122;5.250;2023-10-09T04:20:02;20.0;;;13.7;;
62457;SDS011;48509;52.122;5.250;2023-10-09T04:21:40;22.6;;;15.7;;
62457;SDS011;48509;52.122;5.250;2023-10-09T04:24:52;20.5;;;14.8;;
62457;SDS011;48509;52.122;5.250;2023-10-09T04:26:28;26.7;;;15.3;;
62457;SDS011;48509;52.122;5.250;2023-10-09T04:28:04;22.6;;;14.2;;
62457;SDS011;48509;52.122;5.250;2023-10-09T04:31:16;17.8;;;13.7;;
62457;SDS011;48509;52.122;5.250;2023-10-09T04:32:53;21.5;;;14.5;;
62457;SDS011;48509;52.122;5.250;2023-10-09T04:34:29;21.6;;;15.0;;
62457;SDS011;48509;52.122;5.250;2023-10-09T04:37:43;18.41;;;13.3;;
62457;SDS011;48509;52.122;5.250;2023-10-09T04:39:19;20.8;;;14.0;;
62457;SDS011;48509;52.122;5.250;2023-10-09T04:40:55;20.5;;;13.4;;
62457;SDS011;48509;52.122;5.250;2023-10-09T04:42:31;24.0;;;14.1;;
62457;SDS011;48509;52.122;5.250;2023-10-09T04:45:42;21.3;;;14.0;;
62457;SDS011;48509;52.122;5.250;2023-10-09T04:47:18;19.2;;;13.2;;
62457;SDS011;48509;52.122;5.250;2023-10-09T04:48:53;15.4;;;11.4;;
62457;SDS011;48509;52.122;5.250;2023-10-09T04:52:06;21.7;;;11.8;;
62457;SDS011;48509;52.122;5.250;2023-10-09T04:53:42;25.3;;;12.5;;
62457;SDS011;48509;52.122;5.250;2023-10-09T04:55:18;18.5;;;10.9;;
62457;SDS011;48509;52.122;5.250;2023-10-09T04:58:30;17.11;;;10.7;;
62457;SDS011;48509;52.122;5.250;2023-10-09T05:00:07;18.2;;;11.6;;
62457;SDS011;48509;52.122;5.250;2023-10-09T05:01:44;18.11;;;11.0;;
62457;SDS011;48509;52.122;5.250;2023-10-09T05:04:57;18.41;;;11.6;;
62457;SDS011;48509;52.122;5.250;2023-10-09T05:06:33;19.3;;;12.1;;
62457;SDS011;48509;52.122;5.250;2023-10-09T05:08:09;15.1;;;10.6;;
62457;SDS011;48509;52.122;5.250;2023-10-09T05:09:47;14.9;;;10.7;;
62457;SDS011;48509;52.122;5.250;2023-10-09T05:12:59;18.11;;;11.1;;
62457;SDS011;48509;52.122;5.250;2023-10-09T05:14:35;16.0;;;11.7;;
62457;SDS011;48509;52.122;5.250;2023-10-09T05:16:12;18.61;;;11.7;;
62457;SDS011;48509;52.122;5.250;2023-10-09T05:19:27;19.5;;;11.5;;
62457;SDS011;48509;52.122;5.250;2023-10-09T05:21:03;18.61;;;12.3;;
62457;SDS011;48509;52.122;5.250;2023-10-09T05:22:39;17.61;;;11.6;;
62457;SDS011;48509;52.122;5.250;2023-10-09T05:25:51;15.4;;;11.5;;
62457;SDS011;48509;52.122;5.250;2023-10-09T05:27:27;18.0;;;11.2;;
62457;SDS011;48509;52.122;5.250;2023-10-09T05:29:03;15.7;;;11.1;;
62457;SDS011;48509;52.122;5.250;2023-10-09T05:30:39;18.3;;;10.9;;
62457;SDS011;48509;52.122;5.250;2023-10-09T05:35:28;17.41;;;11.1;;
62457;SDS011;48509;52.122;5.250;2023-10-09T05:37:04;19.2;;;12.5;;
62457;SDS011;48509;52.122;5.250;2023-10-09T05:40:17;21.9;;;11.2;;
62457;SDS011;48509;52.122;5.250;2023-10-09T05:41:53;18.11;;;11.9;;
62457;SDS011;48509;52.122;5.250;2023-10-09T05:43:29;19.8;;;12.4;;
62457;SDS011;48509;52.122;5.250;2023-10-09T05:46:43;20.7;;;12.5;;
62457;SDS011;48509;52.122;5.250;2023-10-09T05:48:19;19.3;;;11.6;;
62457;SDS011;48509;52.122;5.250;2023-10-09T05:49:55;20.2;;;11.5;;
62457;SDS011;48509;52.122;5.250;2023-10-09T05:53:08;16.2;;;11.9;;
62457;SDS011;48509;52.122;5.250;2023-10-09T05:54:44;20.41;;;11.4;;
62457;SDS011;48509;52.122;5.250;2023-10-09T05:56:20;18.3;;;12.1;;
62457;SDS011;48509;52.122;5.250;2023-10-09T05:57:56;19.2;;;12.3;;
62457;SDS011;48509;52.122;5.250;2023-10-09T06:01:08;16.7;;;12.0;;
62457;SDS011;48509;52.122;5.250;2023-10-09T06:02:44;17.41;;;11.6;;
62457;SDS011;48509;52.122;5.250;2023-10-09T06:07:33;15.5;;;10.7;;
62457;SDS011;48509;52.122;5.250;2023-10-09T06:09:09;17.7;;;10.6;;
62457;SDS011;48509;52.122;5.250;2023-10-09T06:10:46;17.11;;;11.0;;
62457;SDS011;48509;52.122;5.250;2023-10-09T06:13:59;14.7;;;11.0;;
62457;SDS011;48509;52.122;5.250;2023-10-09T06:15:37;14.7;;;11.0;;
62457;SDS011;48509;52.122;5.250;2023-10-09T06:17:13;17.41;;;11.2;;
62457;SDS011;48509;52.122;5.250;2023-10-09T06:18:49;19.41;;;11.1;;
62457;SDS011;48509;52.122;5.250;2023-10-09T06:22:02;17.0;;;10.3;;
62457;SDS011;48509;52.122;5.250;2023-10-09T06:23:38;18.11;;;10.21;;
62457;SDS011;48509;52.122;5.250;2023-10-09T06:25:14;16.61;;;9.9;;
62457;SDS011;48509;52.122;5.250;2023-10-09T06:28:26;13.6;;;10.1;;
62457;SDS011;48509;52.122;5.250;2023-10-09T06:30:02;22.3;;;11.2;;
62457;SDS011;48509;52.122;5.250;2023-10-09T06:31:38;15.3;;;10.5;;
62457;SDS011;48509;52.122;5.250;2023-10-09T06:34:51;18.3;;;10.8;;
62457;SDS011;48509;52.122;5.250;2023-10-09T06:36:29;15.5;;;10.0;;
62457;SDS011;48509;52.122;5.250;2023-10-09T06:38:05;19.7;;;10.5;;
62457;SDS011;48509;52.122;5.250;2023-10-09T06:39:41;13.1;;;9.31;;
62457;SDS011;48509;52.122;5.250;2023-10-09T06:42:53;19.7;;;10.3;;
62457;SDS011;48509;52.122;5.250;2023-10-09T06:44:29;16.3;;;10.3;;
62457;SDS011;48509;52.122;5.250;2023-10-09T06:46:05;18.2;;;10.6;;
62457;SDS011;48509;52.122;5.250;2023-10-09T06:49:21;17.91;;;11.3;;
62457;SDS011;48509;52.122;5.250;2023-10-09T06:51:01;18.7;;;10.7;;
62457;SDS011;48509;52.122;5.250;2023-10-09T06:52:39;14.5;;;9.31;;
62457;SDS011;48509;52.122;5.250;2023-10-09T06:55:51;21.1;;;11.2;;
62457;SDS011;48509;52.122;5.250;2023-10-09T06:57:27;16.7;;;10.7;;
62457;SDS011;48509;52.122;5.250;2023-10-09T06:59:04;14.8;;;11.1;;
62457;SDS011;48509;52.122;5.250;2023-10-09T07:00:40;15.0;;;10.4;;
62457;SDS011;48509;52.122;5.250;2023-10-09T07:03:54;16.4;;;10.4;;
62457;SDS011;48509;52.122;5.250;2023-10-09T07:05:29;16.3;;;10.0;;
62457;SDS011;48509;52.122;5.250;2023-10-09T07:07:06;16.2;;;11.4;;
62457;SDS011;48509;52.122;5.250;2023-10-09T07:10:19;15.1;;;11.0;;
62457;SDS011;48509;52.122;5.250;2023-10-09T07:11:55;16.0;;;10.3;;
62457;SDS011;48509;52.122;5.250;2023-10-09T07:13:31;16.8;;;10.7;;
62457;SDS011;48509;52.122;5.250;2023-10-09T07:16:44;20.2;;;10.4;;
62457;SDS011;48509;52.122;5.250;2023-10-09T07:18:20;15.1;;;10.3;;
62457;SDS011;48509;52.122;5.250;2023-10-09T07:19:56;17.41;;;11.3;;
62457;SDS011;48509;52.122;5.250;2023-10-09T07:21:33;17.61;;;11.7;;
62457;SDS011;48509;52.122;5.250;2023-10-09T07:24:45;17.11;;;10.5;;
62457;SDS011;48509;52.122;5.250;2023-10-09T07:26:21;15.7;;;10.6;;
62457;SDS011;48509;52.122;5.250;2023-10-09T07:27:57;18.0;;;11.0;;
62457;SDS011;48509;52.122;5.250;2023-10-09T07:31:16;17.3;;;10.7;;
62457;SDS011;48509;52.122;5.250;2023-10-09T07:32:54;17.91;;;10.6;;
62457;SDS011;48509;52.122;5.250;2023-10-09T07:34:29;16.9;;;11.3;;
62457;SDS011;48509;52.122;5.250;2023-10-09T07:37:42;17.3;;;10.21;;
62457;SDS011;48509;52.122;5.250;2023-10-09T07:39:18;20.0;;;10.8;;
62457;SDS011;48509;52.122;5.250;2023-10-09T07:40:54;23.7;;;11.5;;
62457;SDS011;48509;52.122;5.250;2023-10-09T07:42:31;16.8;;;10.21;;
62457;SDS011;48509;52.122;5.250;2023-10-09T07:45:43;15.9;;;10.8;;
62457;SDS011;48509;52.122;5.250;2023-10-09T07:47:19;17.91;;;10.6;;
62457;SDS011;48509;52.122;5.250;2023-10-09T07:48:56;19.3;;;10.1;;
62457;SDS011;48509;52.122;5.250;2023-10-09T07:52:13;23.2;;;9.5;;
62457;SDS011;48509;52.122;5.250;2023-10-09T07:53:50;12.7;;;8.81;;
62457;SDS011;48509;52.122;5.250;2023-10-09T07:55:27;16.7;;;10.4;;
62457;SDS011;48509;52.122;5.250;2023-10-09T07:58:39;18.61;;;10.21;;
62457;SDS011;48509;52.122;5.250;2023-10-09T08:00:15;20.3;;;11.5;;
62457;SDS011;48509;52.122;5.250;2023-10-09T08:01:51;15.6;;;10.1;;
62457;SDS011;48509;52.122;5.250;2023-10-09T08:03:27;15.8;;;10.5;;
62457;SDS011;48509;52.122;5.250;2023-10-09T08:06:41;18.91;;;10.0;;
62457;SDS011;48509;52.122;5.250;2023-10-09T08:08:18;20.11;;;10.7;;
62457;SDS011;48509;52.122;5.250;2023-10-09T08:09:54;20.11;;;10.7;;
62457;SDS011;48509;52.122;5.250;2023-10-09T08:13:07;16.4;;;10.0;;
62457;SDS011;48509;52.122;5.250;2023-10-09T08:14:43;16.0;;;9.81;;
62457;SDS011;48509;52.122;5.250;2023-10-09T08:16:19;15.4;;;10.3;;
62457;SDS011;48509;52.122;5.250;2023-10-09T08:19:32;18.7;;;10.3;;
62457;SDS011;48509;52.122;5.250;2023-10-09T08:21:09;13.6;;;9.9;;
62457;SDS011;48509;52.122;5.250;2023-10-09T08:22:45;15.7;;;9.4;;
62457;SDS011;48509;52.122;5.250;2023-10-09T08:24:21;19.41;;;10.6;;
62457;SDS011;48509;52.122;5.250;2023-10-09T08:27:35;18.11;;;10.3;;
62457;SDS011;48509;52.122;5.250;2023-10-09T08:29:11;17.41;;;11.3;;
62457;SDS011;48509;52.122;5.250;2023-10-09T08:30:47;16.3;;;10.8;;
62457;SDS011;48509;52.122;5.250;2023-10-09T08:33:59;17.11;;;10.21;;
62457;SDS011;48509;52.122;5.250;2023-10-09T08:35:36;19.91;;;11.1;;
62457;SDS011;48509;52.122;5.250;2023-10-09T08:37:14;18.3;;;10.6;;
62457;SDS011;48509;52.122;5.250;2023-10-09T08:40:29;16.5;;;10.4;;
62457;SDS011;48509;52.122;5.250;2023-10-09T08:42:07;16.4;;;10.5;;
62457;SDS011;48509;52.122;5.250;2023-10-09T08:43:47;21.1;;;10.3;;
62457;SDS011;48509;52.122;5.250;2023-10-09T08:45:25;16.11;;;10.21;;
62457;SDS011;48509;52.122;5.250;2023-10-09T08:48:37;16.7;;;10.4;;
62457;SDS011;48509;52.122;5.250;2023-10-09T08:50:13;18.2;;;10.4;;
62457;SDS011;48509;52.122;5.250;2023-10-09T08:51:50;16.9;;;10.8;;
62457;SDS011;48509;52.122;5.250;2023-10-09T08:55:02;16.9;;;11.1;;
62457;SDS011;48509;52.122;5.250;2023-10-09T08:56:38;19.61;;;11.1;;
62457;SDS011;48509;52.122;5.250;2023-10-09T08:58:14;17.8;;;10.4;;
62457;SDS011;48509;52.122;5.250;2023-10-09T08:59:51;19.5;;;10.9;;
62457;SDS011;48509;52.122;5.250;2023-10-09T09:03:03;15.6;;;10.1;;
62457;SDS011;48509;52.122;5.250;2023-10-09T09:04:40;20.2;;;10.5;;
62457;SDS011;48509;52.122;5.250;2023-10-09T09:06:17;19.3;;;10.1;;
62457;SDS011;48509;52.122;5.250;2023-10-09T09:09:31;18.61;;;10.21;;
62457;SDS011;48509;52.122;5.250;2023-10-09T09:11:08;15.1;;;9.81;;
62457;SDS011;48509;52.122;5.250;2023-10-09T09:12:45;15.3;;;9.9;;
62457;SDS011;48509;52.122;5.250;2023-10-09T09:16:15;18.8;;;9.9;;
62457;SDS011;48509;52.122;5.250;2023-10-09T09:17:52;15.0;;;9.9;;
62457;SDS011;48509;52.122;5.250;2023-10-09T09:19:39;14.4;;;9.0;;
62457;SDS011;48509;52.122;5.250;2023-10-09T09:21:16;15.6;;;9.81;;
62457;SDS011;48509;52.122;5.250;2023-10-09T09:22:54;14.5;;;9.1;;
62457;SDS011;48509;52.122;5.250;2023-10-09T09:26:07;16.3;;;9.71;;
62457;SDS011;48509;52.122;5.250;2023-10-09T09:27:43;15.4;;;9.21;;
62457;SDS011;48509;52.122;5.250;2023-10-09T09:29:20;19.3;;;9.71;;
62457;SDS011;48509;52.122;5.250;2023-10-09T09:32:42;16.4;;;9.6;;
62457;SDS011;48509;52.122;5.250;2023-10-09T09:34:18;19.7;;;8.81;;
62457;SDS011;48509;52.122;5.250;2023-10-09T09:35:56;16.3;;;8.9;;
62457;SDS011;48509;52.122;5.250;2023-10-09T09:37:34;12.6;;;8.2;;
62457;SDS011;48509;52.122;5.250;2023-10-09T09:40:46;14.3;;;8.4;;
62457;SDS011;48509;52.122;5.250;2023-10-09T09:42:23;14.3;;;8.4;;
62457;SDS011;48509;52.122;5.250;2023-10-09T09:44:00;15.2;;;8.5;;
62457;SDS011;48509;52.122;5.250;2023-10-09T09:47:13;13.6;;;8.1;;
62457;SDS011;48509;52.122;5.250;2023-10-09T09:48:50;14.1;;;8.2;;
62457;SDS011;48509;52.122;5.250;2023-10-09T09:50:27;14.4;;;8.1;;
62457;SDS011;48509;52.122;5.250;2023-10-09T09:53:40;17.61;;;9.0;;
62457;SDS011;48509;52.122;5.250;2023-10-09T09:55:16;15.6;;;8.0;;
62457;SDS011;48509;52.122;5.250;2023-10-09T09:56:52;13.7;;;8.2;;
62457;SDS011;48509;52.122;5.250;2023-10-09T09:58:30;14.0;;;8.4;;
62457;SDS011;48509;52.122;5.250;2023-10-09T10:01:47;24.9;;;8.6;;
62457;SDS011;48509;52.122;5.250;2023-10-09T10:03:27;14.1;;;8.5;;
62457;SDS011;48509;52.122;5.250;2023-10-09T10:05:14;16.5;;;8.4;;
62457;SDS011;48509;52.122;5.250;2023-10-09T10:06:52;13.6;;;8.1;;
62457;SDS011;48509;52.122;5.250;2023-10-09T10:10:33;13.0;;;8.4;;
62457;SDS011;48509;52.122;5.250;2023-10-09T10:12:10;12.2;;;7.2;;
62457;SDS011;48509;52.122;5.250;2023-10-09T10:13:54;13.7;;;8.1;;
62457;SDS011;48509;52.122;5.250;2023-10-09T10:16:07;14.5;;;8.31;;
62457;SDS011;48509;52.122;5.250;2023-10-09T10:18:14;11.1;;;7.6;;
62457;SDS011;48509;52.122;5.250;2023-10-09T10:20:02;14.8;;;8.5;;
62457;SDS011;48509;52.122;5.250;2023-10-09T10:21:40;19.2;;;8.1;;
62457;SDS011;48509;52.122;5.250;2023-10-09T10:24:54;13.8;;;7.7;;
62457;SDS011;48509;52.122;5.250;2023-10-09T10:26:31;13.2;;;7.1;;
62457;SDS011;48509;52.122;5.250;2023-10-09T10:28:15;12.7;;;7.3;;
62457;SDS011;48509;52.122;5.250;2023-10-09T10:30:26;12.2;;;7.6;;
62457;SDS011;48509;52.122;5.250;2023-10-09T10:32:06;14.2;;;7.2;;
62457;SDS011;48509;52.122;5.250;2023-10-09T10:35:54;14.1;;;7.9;;
62457;SDS011;48509;52.122;5.250;2023-10-09T10:37:35;15.4;;;7.4;;
62457;SDS011;48509;52.122;5.250;2023-10-09T10:39:12;13.3;;;7.3;;
62457;SDS011;48509;52.122;5.250;2023-10-09T10:40:48;13.2;;;7.4;;
62457;SDS011;48509;52.122;5.250;2023-10-09T10:42:25;14.7;;;7.1;;
62457;SDS011;48509;52.122;5.250;2023-10-09T10:45:38;12.8;;;7.6;;
62457;SDS011;48509;52.122;5.250;2023-10-09T10:47:15;21.4;;;7.7;;
62457;SDS011;48509;52.122;5.250;2023-10-09T10:49:04;13.4;;;7.3;;
62457;SDS011;48509;52.122;5.250;2023-10-09T10:52:20;17.2;;;7.6;;
62457;SDS011;48509;52.122;5.250;2023-10-09T10:53:56;12.1;;;7.4;;
62457;SDS011;48509;52.122;5.250;2023-10-09T10:55:32;12.1;;;7.4;;
62457;SDS011;48509;52.122;5.250;2023-10-09T10:57:13;11.4;;;6.9;;
62457;SDS011;48509;52.122;5.250;2023-10-09T11:00:29;10.6;;;6.6;;
62457;SDS011;48509;52.122;5.250;2023-10-09T11:02:09;14.6;;;7.1;;
62457;SDS011;48509;52.122;5.250;2023-10-09T11:03:46;12.2;;;7.3;;
62457;SDS011;48509;52.122;5.250;2023-10-09T11:05:24;16.11;;;7.0;;
62457;SDS011;48509;52.122;5.250;2023-10-09T11:08:40;28.7;;;6.7;;
62457;SDS011;48509;52.122;5.250;2023-10-09T11:10:21;15.0;;;7.9;;
62457;SDS011;48509;52.122;5.250;2023-10-09T11:12:03;13.4;;;6.9;;
62457;SDS011;48509;52.122;5.250;2023-10-09T11:15:29;13.7;;;7.4;;
62457;SDS011;48509;52.122;5.250;2023-10-09T11:17:07;10.1;;;6.6;;
62457;SDS011;48509;52.122;5.250;2023-10-09T11:18:43;8.81;;;6.8;;
62457;SDS011;48509;52.122;5.250;2023-10-09T11:20:19;11.9;;;6.8;;
62457;SDS011;48509;52.122;5.250;2023-10-09T11:23:32;13.6;;;7.5;;
62457;SDS011;48509;52.122;5.250;2023-10-09T11:25:09;13.1;;;6.9;;
62457;SDS011;48509;52.122;5.250;2023-10-09T11:26:46;12.6;;;7.1;;
62457;SDS011;48509;52.122;5.250;2023-10-09T11:28:23;11.3;;;6.9;;
62457;SDS011;48509;52.122;5.250;2023-10-09T11:31:36;20.11;;;7.4;;
62457;SDS011;48509;52.122;5.250;2023-10-09T11:33:12;11.4;;;7.2;;
62457;SDS011;48509;52.122;5.250;2023-10-09T11:34:48;14.3;;;7.4;;
62457;SDS011;48509;52.122;5.250;2023-10-09T11:36:44;11.4;;;7.2;;
62457;SDS011;48509;52.122;5.250;2023-10-09T11:39:56;9.71;;;6.2;;
62457;SDS011;48509;52.122;5.250;2023-10-09T11:41:38;10.7;;;6.3;;
62457;SDS011;48509;52.122;5.250;2023-10-09T11:43:15;11.7;;;6.4;;
62457;SDS011;48509;52.122;5.250;2023-10-09T11:46:27;11.4;;;6.8;;
62457;SDS011;48509;52.122;5.250;2023-10-09T11:48:15;18.8;;;7.1;;
62457;SDS011;48509;52.122;5.250;2023-10-09T11:49:54;16.8;;;7.3;;
62457;SDS011;48509;52.122;5.250;2023-10-09T11:51:31;11.4;;;6.9;;
62457;SDS011;48509;52.122;5.250;2023-10-09T11:54:43;13.7;;;6.8;;
62457;SDS011;48509;52.122;5.250;2023-10-09T11:56:21;11.7;;;6.2;;
62457;SDS011;48509;52.122;5.250;2023-10-09T11:57:57;13.5;;;6.7;;
62457;SDS011;48509;52.122;5.250;2023-10-09T12:01:11;11.5;;;6.8;;
62457;SDS011;48509;52.122;5.250;2023-10-09T12:02:49;12.0;;;7.3;;
62457;SDS011;48509;52.122;5.250;2023-10-09T12:04:25;11.6;;;6.7;;
62457;SDS011;48509;52.122;5.250;2023-10-09T12:06:01;11.0;;;6.7;;
62457;SDS011;48509;52.122;5.250;2023-10-09T12:09:15;11.1;;;6.3;;
62457;SDS011;48509;52.122;5.250;2023-10-09T12:10:51;11.4;;;6.3;;
62457;SDS011;48509;52.122;5.250;2023-10-09T12:12:27;13.2;;;6.9;;
62457;SDS011;48509;52.122;5.250;2023-10-09T12:15:39;13.3;;;6.6;;
62457;SDS011;48509;52.122;5.250;2023-10-09T12:17:16;13.0;;;7.1;;
62457;SDS011;48509;52.122;5.250;2023-10-09T12:18:52;13.9;;;7.3;;
62457;SDS011;48509;52.122;5.250;2023-10-09T12:22:05;12.2;;;6.9;;
62457;SDS011;48509;52.122;5.250;2023-10-09T12:23:42;14.0;;;6.7;;
62457;SDS011;48509;52.122;5.250;2023-10-09T12:25:18;15.0;;;7.6;;
62457;SDS011;48509;52.122;5.250;2023-10-09T12:28:30;12.0;;;6.8;;
62457;SDS011;48509;52.122;5.250;2023-10-09T12:30:07;11.5;;;6.2;;
62457;SDS011;48509;52.122;5.250;2023-10-09T12:31:43;12.2;;;6.7;;
62457;SDS011;48509;52.122;5.250;2023-10-09T12:33:20;11.1;;;6.4;;
62457;SDS011;48509;52.122;5.250;2023-10-09T12:36:33;12.4;;;6.5;;
62457;SDS011;48509;52.122;5.250;2023-10-09T12:38:09;10.1;;;6.5;;
62457;SDS011;48509;52.122;5.250;2023-10-09T12:39:45;14.1;;;6.8;;
62457;SDS011;48509;52.122;5.250;2023-10-09T12:42:57;11.6;;;6.6;;